createdAt,value
2023-01-09T00:01:41.781Z,91.33
2023-01-09T00:04:10.565Z,91.41
2023-01-09T00:06:40.380Z,91.42
2023-01-09T00:09:08.446Z,91.29
2023-01-09T00:11:37.745Z,91.24
2023-01-09T00:14:05.719Z,91.03
2023-01-09T00:16:33.690Z,91.12
2023-01-09T00:19:01.806Z,91.07
2023-01-09T00:21:29.957Z,91.19
2023-01-09T00:23:57.916Z,91.30
2023-01-09T00:26:25.759Z,91.43
2023-01-09T00:28:54.420Z,91.44
2023-01-09T00:31:22.500Z,91.28
2023-01-09T00:34:07.971Z,91.67
2023-01-09T00:36:36.280Z,92.45
2023-01-09T00:39:05.686Z,92.83
2023-01-09T00:41:43.405Z,92.48
2023-01-09T00:44:18.006Z,92.42
2023-01-09T00:46:52.658Z,91.89
2023-01-09T00:49:21.590Z,91.93
2023-01-09T00:51:50.077Z,91.77
2023-01-09T00:54:20.292Z,91.61
2023-01-09T00:56:50.065Z,91.60
2023-01-09T00:59:18.079Z,91.84
2023-01-09T01:01:46.178Z,91.87
2023-01-09T01:04:32.774Z,91.68
2023-01-09T01:07:19.436Z,91.64
2023-01-09T01:09:47.368Z,91.56
2023-01-09T01:12:15.435Z,91.60
2023-01-09T01:14:43.617Z,91.50
2023-01-09T01:17:11.495Z,91.32
2023-01-09T01:19:39.446Z,91.57
2023-01-09T01:22:07.418Z,91.58
2023-01-09T01:24:35.322Z,91.59
2023-01-09T01:27:03.268Z,91.74
2023-01-09T01:29:31.222Z,91.79
2023-01-09T01:31:59.233Z,91.79
2023-01-09T01:34:29.069Z,91.83
2023-01-09T01:36:57.060Z,91.82
2023-01-09T01:39:24.907Z,91.90
2023-01-09T01:41:52.911Z,91.97
2023-01-09T01:45:00.101Z,92.04
2023-01-09T01:47:38.547Z,91.97
2023-01-09T01:50:33.423Z,91.98
2023-01-09T01:53:21.984Z,91.97
2023-01-09T01:56:14.718Z,91.84
2023-01-09T01:58:49.861Z,92.27
2023-01-09T02:01:22.690Z,92.19
2023-01-09T02:03:53.241Z,92.26
2023-01-09T02:06:21.552Z,91.92
2023-01-09T02:08:50.204Z,92.10
2023-01-09T02:11:20.502Z,92.05
2023-01-09T02:13:49.129Z,91.99
2023-01-09T02:16:26.327Z,92.01
2023-01-09T02:19:15.492Z,91.96
2023-01-09T02:22:21.125Z,91.99
2023-01-09T02:25:01.305Z,92.00
2023-01-09T02:27:44.426Z,92.09
2023-01-09T02:30:21.430Z,91.83
2023-01-09T02:33:23.150Z,91.90
2023-01-09T02:36:10.756Z,91.75
2023-01-09T02:38:55.050Z,91.50
2023-01-09T02:41:28.042Z,91.06
2023-01-09T02:44:24.474Z,91.18
2023-01-09T02:47:08.725Z,91.30
2023-01-09T02:49:40.045Z,90.96
2023-01-09T02:52:27.533Z,90.96
2023-01-09T02:55:08.985Z,90.96
2023-01-09T02:57:42.663Z,91.14
2023-01-09T03:00:16.596Z,91.18
2023-01-09T03:02:57.760Z,91.10
2023-01-09T03:05:47.626Z,91.19
2023-01-09T03:08:23.385Z,91.14
2023-01-09T03:11:04.799Z,91.05
2023-01-09T03:13:47.217Z,90.91
2023-01-09T03:16:20.718Z,90.59
2023-01-09T03:18:50.552Z,90.41
2023-01-09T03:21:20.342Z,90.32
2023-01-09T03:23:56.634Z,90.18
2023-01-09T03:26:25.485Z,90.13
2023-01-09T03:28:53.458Z,90.06
2023-01-09T03:31:22.380Z,90.00
2023-01-09T03:33:50.729Z,90.00
2023-01-09T03:36:20.382Z,90.06
2023-01-09T03:38:49.022Z,90.07
2023-01-09T03:41:18.013Z,90.00
2023-01-09T03:43:48.439Z,89.92
2023-01-09T03:46:18.128Z,89.76
2023-01-09T03:48:46.131Z,89.87
2023-01-09T03:51:14.197Z,89.88
2023-01-09T03:53:42.266Z,89.92
2023-01-09T03:56:10.212Z,89.96
2023-01-09T03:58:38.305Z,89.87
2023-01-09T04:01:09.685Z,89.79
2023-01-09T04:03:37.780Z,89.81
2023-01-09T04:06:06.858Z,89.72
2023-01-09T04:08:35.097Z,89.67
2023-01-09T04:11:03.275Z,89.66
2023-01-09T04:13:31.197Z,89.71
2023-01-09T04:15:59.359Z,89.72
2023-01-09T04:18:27.221Z,89.65
2023-01-09T04:20:55.535Z,89.68
2023-01-09T04:23:23.631Z,89.70
2023-01-09T04:25:51.496Z,89.65
2023-01-09T04:28:19.775Z,89.52
2023-01-09T04:30:47.749Z,89.62
2023-01-09T04:33:15.718Z,89.51
2023-01-09T04:35:43.620Z,89.45
2023-01-09T04:38:11.653Z,89.53
2023-01-09T04:40:39.641Z,89.44
2023-01-09T04:43:07.800Z,89.24
2023-01-09T04:45:35.767Z,89.15
2023-01-09T04:48:04.005Z,89.01
2023-01-09T04:50:31.918Z,89.00
2023-01-09T04:52:59.840Z,88.91
2023-01-09T04:55:28.002Z,89.00
2023-01-09T04:57:55.922Z,88.96
2023-01-09T05:00:23.994Z,88.92
2023-01-09T05:02:51.960Z,88.83
2023-01-09T05:05:19.955Z,88.77
2023-01-09T05:07:47.843Z,88.78
2023-01-09T05:10:15.831Z,88.76
2023-01-09T05:12:43.702Z,88.65
2023-01-09T05:15:12.390Z,88.55
2023-01-09T05:17:40.261Z,88.45
2023-01-09T05:20:09.032Z,88.45
2023-01-09T05:22:36.984Z,88.38
2023-01-09T05:25:05.826Z,88.35
2023-01-09T05:27:33.700Z,88.27
2023-01-09T05:30:01.798Z,88.29
2023-01-09T05:32:29.851Z,88.28
2023-01-09T05:34:58.228Z,88.29
2023-01-09T05:37:26.092Z,88.40
2023-01-09T05:39:53.996Z,88.33
2023-01-09T05:42:22.053Z,88.33
2023-01-09T05:44:49.944Z,88.31
2023-01-09T05:47:18.144Z,88.35
2023-01-09T05:49:46.148Z,88.49
2023-01-09T05:52:14.118Z,88.39
2023-01-09T05:54:42.184Z,88.22
2023-01-09T05:57:10.160Z,88.13
2023-01-09T05:59:38.153Z,88.25
2023-01-09T06:02:06.276Z,88.18
2023-01-09T06:04:34.296Z,88.01
2023-01-09T06:07:02.247Z,88.05
2023-01-09T06:09:31.434Z,87.88
2023-01-09T06:11:59.409Z,87.85
2023-01-09T06:14:27.393Z,87.89
2023-01-09T06:16:55.533Z,87.78
2023-01-09T06:19:23.448Z,87.78
2023-01-09T06:21:53.617Z,87.79
2023-01-09T06:24:21.776Z,87.78
2023-01-09T06:26:49.778Z,87.92
2023-01-09T06:29:17.956Z,87.91
2023-01-09T06:31:45.985Z,87.79
2023-01-09T06:34:14.005Z,87.73
2023-01-09T06:36:41.918Z,87.73
2023-01-09T06:39:10.015Z,87.75
2023-01-09T06:41:38.321Z,87.81
2023-01-09T06:44:06.233Z,87.84
2023-01-09T06:46:34.126Z,87.73
2023-01-09T06:49:02.029Z,87.71
2023-01-09T06:51:30.025Z,87.77
2023-01-09T06:53:58.061Z,87.85
2023-01-09T06:56:26.252Z,87.75
2023-01-09T06:58:54.166Z,87.76
2023-01-09T07:01:22.397Z,87.59
2023-01-09T07:03:50.460Z,87.51
2023-01-09T07:06:20.157Z,87.50
2023-01-09T07:08:48.091Z,87.43
2023-01-09T07:11:16.407Z,87.26
2023-01-09T07:13:44.690Z,87.28
2023-01-09T07:16:12.765Z,87.18
2023-01-09T07:18:40.769Z,87.05
2023-01-09T07:21:08.908Z,86.91
2023-01-09T07:23:36.867Z,86.82
2023-01-09T07:26:05.013Z,86.34
2023-01-09T07:28:32.862Z,86.10
2023-01-09T07:31:02.637Z,86.10
2023-01-09T07:33:30.797Z,86.04
2023-01-09T07:35:58.765Z,85.73
2023-01-09T07:38:27.244Z,85.62
2023-01-09T07:40:55.222Z,85.40
2023-01-09T07:43:23.602Z,85.12
2023-01-09T07:45:51.493Z,84.81
2023-01-09T07:48:19.428Z,83.94
2023-01-09T07:50:47.603Z,82.15
2023-01-09T07:53:15.603Z,79.26
2023-01-09T07:55:43.939Z,78.19
2023-01-09T07:58:12.255Z,76.25
2023-01-09T08:00:40.514Z,74.57
2023-01-09T08:03:08.721Z,72.45
2023-01-09T08:05:37.245Z,68.43
2023-01-09T08:08:05.495Z,68.86
2023-01-09T08:10:33.522Z,69.45
2023-01-09T08:13:01.422Z,67.87
2023-01-09T08:15:29.985Z,67.09
2023-01-09T08:17:57.888Z,63.30
2023-01-09T08:20:27.316Z,63.49
2023-01-09T08:22:56.942Z,62.91
2023-01-09T08:25:25.128Z,61.71
2023-01-09T08:27:53.087Z,62.55
2023-01-09T08:30:21.379Z,62.94
2023-01-09T08:32:54.059Z,63.11
2023-01-09T08:35:22.176Z,62.51
2023-01-09T08:37:51.417Z,61.95
2023-01-09T08:40:19.555Z,63.20
2023-01-09T08:43:06.221Z,63.77
2023-01-09T08:45:53.040Z,64.67
2023-01-09T08:48:21.024Z,64.98
2023-01-09T08:50:49.533Z,65.15
2023-01-09T08:53:17.549Z,65.51
2023-01-09T08:55:45.913Z,65.65
2023-01-09T08:58:13.978Z,64.67
2023-01-09T09:00:45.400Z,63.57
2023-01-09T09:03:13.313Z,62.27
2023-01-09T09:05:41.195Z,62.07
2023-01-09T09:08:09.415Z,62.02
2023-01-09T09:10:37.481Z,59.33
2023-01-09T09:13:05.749Z,59.85
2023-01-09T09:15:34.553Z,59.07
2023-01-09T09:18:05.650Z,53.76
2023-01-09T09:20:36.581Z,52.08
2023-01-09T09:23:05.757Z,48.61
2023-01-09T09:25:34.041Z,47.15
2023-01-09T09:28:02.239Z,44.86
2023-01-09T09:30:30.671Z,46.26
2023-01-09T09:32:58.659Z,45.75
2023-01-09T09:35:28.472Z,44.08
2023-01-09T09:38:04.802Z,44.13
2023-01-09T09:40:36.409Z,45.35
2023-01-09T09:43:32.473Z,45.36
2023-01-09T09:46:25.164Z,46.19
2023-01-09T09:49:02.470Z,46.45
2023-01-09T09:52:14.879Z,47.88
2023-01-09T09:54:49.614Z,48.01
2023-01-09T09:57:23.522Z,47.53
2023-01-09T09:59:53.231Z,47.82
2023-01-09T10:02:44.576Z,46.13
2023-01-09T10:05:21.517Z,46.49
2023-01-09T10:07:51.529Z,48.22
2023-01-09T10:10:47.472Z,48.88
2023-01-09T10:13:38.040Z,47.81
2023-01-09T10:16:18.288Z,47.48
2023-01-09T10:19:02.485Z,48.27
2023-01-09T10:21:48.684Z,48.26
2023-01-09T10:24:39.054Z,49.08
2023-01-09T10:27:29.841Z,48.97
2023-01-09T10:30:41.040Z,49.80
2023-01-09T10:33:24.169Z,50.51
2023-01-09T10:36:13.640Z,50.49
2023-01-09T10:38:47.628Z,51.11
2023-01-09T10:41:28.436Z,51.28
2023-01-09T10:44:06.839Z,51.65
2023-01-09T10:46:53.163Z,51.93
2023-01-09T10:49:23.353Z,52.22
2023-01-09T10:52:02.180Z,52.90
2023-01-09T10:54:30.248Z,52.25
2023-01-09T10:57:12.936Z,52.73
2023-01-09T10:59:42.261Z,52.55
2023-01-09T11:02:32.255Z,52.81
2023-01-09T11:05:01.749Z,52.80
2023-01-09T11:07:34.746Z,53.22
2023-01-09T11:10:09.761Z,52.62
2023-01-09T11:12:39.496Z,52.64
2023-01-09T11:15:23.947Z,53.19
2023-01-09T11:17:52.431Z,52.30
2023-01-09T11:20:23.467Z,52.36
2023-01-09T11:22:59.041Z,52.70
2023-01-09T11:25:29.030Z,51.86
2023-01-09T11:28:05.868Z,52.06
2023-01-09T11:30:54.154Z,51.86
2023-01-09T11:33:25.627Z,51.91
2023-01-09T11:36:05.362Z,51.49
2023-01-09T11:38:46.813Z,52.12
2023-01-09T11:41:21.063Z,51.63
2023-01-09T11:43:52.446Z,52.15
2023-01-09T11:46:50.213Z,52.30
2023-01-09T11:49:25.387Z,51.81
2023-01-09T11:52:15.280Z,51.78
2023-01-09T11:55:09.255Z,52.18
2023-01-09T11:57:37.247Z,52.19
2023-01-09T12:00:28.538Z,52.57
2023-01-09T12:03:38.515Z,52.16
2023-01-09T12:06:12.937Z,52.61
2023-01-09T12:08:58.338Z,53.20
2023-01-09T12:11:49.017Z,53.43
2023-01-09T12:14:26.903Z,53.55
2023-01-09T12:17:09.840Z,53.06
2023-01-09T12:20:02.853Z,53.67
2023-01-09T12:23:03.032Z,53.41
2023-01-09T12:25:52.859Z,53.47
2023-01-09T12:28:38.961Z,53.76
2023-01-09T12:31:12.887Z,53.63
2023-01-09T12:33:49.912Z,53.50
2023-01-09T12:36:26.764Z,53.51
2023-01-09T12:39:03.654Z,53.80
2023-01-09T12:41:43.857Z,54.02
2023-01-09T12:44:45.380Z,54.15
2023-01-09T12:47:25.190Z,54.13
2023-01-09T12:50:39.381Z,54.31
2023-01-09T12:53:10.397Z,53.78
2023-01-09T12:55:47.151Z,54.24
2023-01-09T12:58:42.278Z,54.27
2023-01-09T13:01:21.683Z,54.55
2023-01-09T13:04:12.932Z,54.56
2023-01-09T13:06:47.000Z,54.28
2023-01-09T13:09:22.392Z,54.24
2023-01-09T13:11:55.682Z,54.37
2023-01-09T13:14:44.218Z,54.10
2023-01-09T13:17:27.991Z,54.24
2023-01-09T13:19:56.868Z,54.19
2023-01-09T13:22:27.647Z,53.88
2023-01-09T13:25:27.008Z,53.56
2023-01-09T13:28:26.837Z,53.82
2023-01-09T13:30:58.789Z,53.70
2023-01-09T13:33:36.895Z,53.43
2023-01-09T13:36:05.995Z,53.74
2023-01-09T13:38:35.505Z,53.97
2023-01-09T13:41:32.655Z,53.79
2023-01-09T13:44:03.765Z,53.82
2023-01-09T13:46:41.873Z,53.68
2023-01-09T13:49:42.534Z,53.64
2023-01-09T13:52:30.789Z,54.03
2023-01-09T13:54:58.794Z,53.94
2023-01-09T13:57:43.072Z,53.79
2023-01-09T14:00:17.047Z,53.21
2023-01-09T14:02:46.869Z,53.83
2023-01-09T14:05:23.904Z,54.23
2023-01-09T14:08:05.084Z,54.32
2023-01-09T14:10:45.574Z,54.86
2023-01-09T14:13:15.374Z,55.04
2023-01-09T14:15:47.030Z,55.10
2023-01-09T14:18:26.861Z,54.48
2023-01-09T14:21:01.594Z,54.54
2023-01-09T14:23:58.563Z,55.00
2023-01-09T14:26:47.400Z,55.27
2023-01-09T14:29:37.194Z,55.06
2023-01-09T14:32:23.727Z,54.46
2023-01-09T14:35:01.087Z,54.81
2023-01-09T14:37:31.094Z,54.28
2023-01-09T14:39:59.889Z,54.87
2023-01-09T14:42:31.036Z,54.99
2023-01-09T14:45:04.527Z,55.06
2023-01-09T14:47:42.469Z,55.00
2023-01-09T14:50:16.491Z,54.98
2023-01-09T14:53:13.733Z,55.36
2023-01-09T14:55:57.805Z,56.07
2023-01-09T14:58:26.010Z,56.98
2023-01-09T15:01:03.378Z,57.71
2023-01-09T15:03:42.410Z,58.04
2023-01-09T15:06:41.231Z,58.31
2023-01-09T15:09:26.961Z,58.77
2023-01-09T15:12:02.262Z,58.95
2023-01-09T15:14:36.106Z,59.45
2023-01-09T15:17:04.477Z,59.71
2023-01-09T15:19:33.584Z,60.08
2023-01-09T15:22:07.111Z,60.60
2023-01-09T15:24:34.990Z,60.73
2023-01-09T15:27:12.726Z,60.74
2023-01-09T15:29:41.694Z,61.06
2023-01-09T15:32:25.178Z,61.19
2023-01-09T15:34:55.264Z,61.57
2023-01-09T15:37:34.283Z,61.89
2023-01-09T15:40:04.963Z,62.16
2023-01-09T15:42:58.365Z,62.34
2023-01-09T15:45:26.349Z,62.67
2023-01-09T15:47:55.237Z,62.67
2023-01-09T15:50:28.837Z,62.78
2023-01-09T15:52:57.175Z,62.95
2023-01-09T15:55:35.434Z,63.22
2023-01-09T15:58:05.184Z,63.60
2023-01-09T16:00:41.589Z,63.65
2023-01-09T16:03:18.894Z,64.78
2023-01-09T16:05:51.396Z,64.98
2023-01-09T16:08:31.705Z,65.14
2023-01-09T16:11:03.507Z,65.05
2023-01-09T16:13:35.092Z,65.02
2023-01-09T16:16:03.723Z,65.20
2023-01-09T16:18:51.925Z,65.96
2023-01-09T16:21:34.606Z,65.99
2023-01-09T16:24:41.242Z,66.10
2023-01-09T16:27:24.572Z,66.18
2023-01-09T16:29:57.748Z,66.37
2023-01-09T16:32:36.225Z,66.05
2023-01-09T16:35:07.523Z,65.48
2023-01-09T16:37:36.134Z,65.05
2023-01-09T16:40:22.520Z,64.62
2023-01-09T16:43:03.278Z,64.48
2023-01-09T16:45:33.288Z,64.89
2023-01-09T16:48:22.110Z,64.86
2023-01-09T16:50:50.551Z,64.83
2023-01-09T16:53:24.306Z,65.07
2023-01-09T16:55:54.073Z,65.07
2023-01-09T16:58:30.652Z,65.04
2023-01-09T17:00:59.294Z,65.43
2023-01-09T17:03:27.400Z,65.54
2023-01-09T17:05:58.875Z,65.44
2023-01-09T17:08:32.027Z,65.35
2023-01-09T17:11:00.053Z,65.39
2023-01-09T17:13:28.206Z,65.83
2023-01-09T17:15:57.817Z,66.11
2023-01-09T17:18:27.663Z,66.11
2023-01-09T17:20:58.665Z,66.63
2023-01-09T17:23:26.821Z,66.99
2023-01-09T17:26:16.623Z,66.85
2023-01-09T17:28:50.486Z,66.53
2023-01-09T17:31:19.078Z,66.62
2023-01-09T17:33:47.073Z,67.06
2023-01-09T17:36:32.208Z,67.49
2023-01-09T17:39:01.357Z,67.77
2023-01-09T17:41:31.230Z,67.87
2023-01-09T17:44:00.634Z,67.19
2023-01-09T17:46:32.501Z,67.27
2023-01-09T17:49:02.096Z,67.14
2023-01-09T17:51:30.256Z,67.23
2023-01-09T17:53:58.659Z,67.54
2023-01-09T17:56:33.406Z,67.74
2023-01-09T17:59:01.450Z,67.60
2023-01-09T18:01:29.613Z,67.66
2023-01-09T18:03:58.092Z,67.74
2023-01-09T18:06:26.157Z,67.92
2023-01-09T18:08:56.702Z,67.71
2023-01-09T18:11:26.300Z,67.52
2023-01-09T18:13:54.442Z,67.57
2023-01-09T18:16:25.919Z,67.52
2023-01-09T18:18:57.906Z,67.77
2023-01-09T18:21:28.630Z,68.06
2023-01-09T18:23:58.075Z,67.83
2023-01-09T18:26:25.965Z,67.81
2023-01-09T18:28:59.266Z,68.03
2023-01-09T18:31:28.526Z,68.34
2023-01-09T18:33:58.452Z,68.34
2023-01-09T18:36:29.723Z,68.37
2023-01-09T18:39:00.571Z,68.53
2023-01-09T18:41:29.850Z,68.89
2023-01-09T18:44:00.594Z,69.22
2023-01-09T18:46:32.706Z,69.23
2023-01-09T18:49:03.310Z,69.22
2023-01-09T18:51:33.728Z,69.47
2023-01-09T18:54:01.882Z,69.45
2023-01-09T18:56:30.079Z,69.79
2023-01-09T18:58:59.190Z,69.58
2023-01-09T19:01:28.869Z,69.70
2023-01-09T19:03:59.463Z,69.83
2023-01-09T19:06:29.279Z,70.11
2023-01-09T19:09:00.727Z,69.98
2023-01-09T19:11:28.934Z,70.06
2023-01-09T19:13:57.116Z,70.51
2023-01-09T19:16:25.362Z,70.37
2023-01-09T19:18:53.458Z,70.46
2023-01-09T19:21:23.586Z,70.94
2023-01-09T19:23:51.757Z,71.49
2023-01-09T19:26:23.940Z,71.43
2023-01-09T19:28:57.724Z,71.36
2023-01-09T19:31:28.448Z,71.62
2023-01-09T19:33:58.584Z,71.68
2023-01-09T19:36:28.003Z,71.98
2023-01-09T19:39:00.366Z,71.69
2023-01-09T19:41:29.725Z,71.69
2023-01-09T19:43:59.680Z,71.77
2023-01-09T19:46:28.670Z,71.47
2023-01-09T19:48:59.038Z,71.26
2023-01-09T19:51:27.234Z,71.09
2023-01-09T19:56:38.006Z,70.63
2023-01-09T19:59:06.382Z,70.25
2023-01-09T20:01:37.304Z,69.93
2023-01-09T20:04:10.520Z,69.42
2023-01-09T20:06:41.505Z,69.30
2023-01-09T20:09:12.253Z,69.19
2023-01-09T20:11:41.438Z,68.95
2023-01-09T20:14:12.814Z,68.83
2023-01-09T20:16:41.766Z,68.39
2023-01-09T20:19:11.459Z,68.52
2023-01-09T20:21:39.876Z,68.50
2023-01-09T20:24:10.835Z,68.35
2023-01-09T20:26:40.642Z,68.37
2023-01-09T20:29:08.792Z,68.32
2023-01-09T20:31:37.219Z,68.54
2023-01-09T20:34:05.249Z,68.67
2023-01-09T20:36:35.235Z,68.64
2023-01-09T20:39:06.479Z,68.74
2023-01-09T20:41:34.539Z,68.57
2023-01-09T20:44:09.522Z,68.77
2023-01-09T20:46:39.947Z,68.76
2023-01-09T20:49:11.570Z,68.81
2023-01-09T20:51:46.743Z,68.80
2023-01-09T20:54:16.544Z,68.80
2023-01-09T20:56:44.495Z,68.92
2023-01-09T20:59:17.041Z,68.89
2023-01-09T21:01:45.035Z,68.98
2023-01-09T21:04:13.609Z,68.97
2023-01-09T21:06:42.742Z,69.14
2023-01-09T21:09:11.027Z,69.08
2023-01-09T21:11:38.992Z,69.32
2023-01-09T21:14:06.956Z,69.57
2023-01-09T21:16:34.959Z,69.50
2023-01-09T21:19:03.102Z,69.54
2023-01-09T21:21:31.244Z,69.83
2023-01-09T21:24:00.653Z,69.97
2023-01-09T21:26:30.792Z,69.93
2023-01-09T21:29:01.330Z,70.19
2023-01-09T21:31:35.181Z,70.52
2023-01-09T21:34:07.048Z,70.98
2023-01-09T21:36:36.034Z,71.18
2023-01-09T21:39:07.860Z,71.20
2023-01-09T21:41:55.255Z,70.88
2023-01-09T21:44:41.583Z,70.70
2023-01-09T21:47:09.625Z,70.83
2023-01-09T21:49:43.860Z,71.03
2023-01-09T21:52:13.157Z,71.34
2023-01-09T21:54:41.788Z,71.19
2023-01-09T21:57:10.538Z,71.24
2023-01-09T21:59:38.611Z,71.13
2023-01-09T22:02:07.199Z,70.82
2023-01-09T22:04:35.273Z,70.74
2023-01-09T22:07:03.489Z,70.68
2023-01-09T22:09:31.594Z,70.76
2023-01-09T22:11:59.525Z,70.83
2023-01-09T22:14:27.639Z,70.88
2023-01-09T22:16:55.723Z,70.92
2023-01-09T22:19:23.661Z,71.11
2023-01-09T22:21:51.576Z,71.02
2023-01-09T22:24:21.704Z,71.10
2023-01-09T22:26:49.874Z,71.39
2023-01-09T22:29:18.424Z,71.17
2023-01-09T22:31:46.663Z,71.16
2023-01-09T22:34:16.771Z,70.91
2023-01-09T22:36:47.084Z,71.03
2023-01-09T22:39:17.764Z,71.09
2023-01-09T22:41:50.385Z,71.19
2023-01-09T22:44:19.472Z,71.39
2023-01-09T22:46:47.400Z,71.51
2023-01-09T22:49:15.352Z,71.32
2023-01-09T22:51:43.892Z,71.35
2023-01-09T22:54:11.975Z,71.54
2023-01-09T22:56:40.027Z,71.64
2023-01-09T22:59:07.875Z,71.70
2023-01-09T23:01:35.997Z,71.75
2023-01-09T23:04:04.136Z,71.54
2023-01-09T23:06:32.320Z,71.29
2023-01-09T23:09:00.397Z,71.17
2023-01-09T23:11:48.643Z,70.93
2023-01-09T23:14:17.810Z,70.93
2023-01-09T23:16:45.734Z,70.90
2023-01-09T23:19:17.478Z,70.75
2023-01-09T23:21:45.802Z,70.71
2023-01-09T23:24:16.200Z,70.82
2023-01-09T23:26:44.759Z,70.50
2023-01-09T23:29:13.435Z,70.30
2023-01-09T23:31:41.983Z,70.09
2023-01-09T23:34:14.589Z,70.10
2023-01-09T23:36:42.800Z,69.90
2023-01-09T23:39:11.177Z,69.80
2023-01-09T23:41:58.611Z,69.79
2023-01-09T23:44:27.439Z,69.54
2023-01-09T23:46:55.441Z,69.22
2023-01-09T23:49:23.642Z,69.04
2023-01-09T23:51:51.685Z,69.03
2023-01-09T23:54:19.554Z,69.04
2023-01-09T23:56:47.931Z,68.94
2023-01-09T23:59:17.757Z,69.04
